sensor_id;sensor_type;location;lat;lon;timestamp;pressure;altitude;pressure_sealevel;temperature;humidity
26087;BME280;13851;43.434;28.338;2022-10-31T00:00:55;100000.69;;;17.45;100.00
26087;BME280;13851;43.434;28.338;2022-10-31T00:03:20;100018.72;;;17.54;100.00
26087;BME280;13851;43.434;28.338;2022-10-31T00:05:48;100188.41;;;18.51;100.00
26087;BME280;13851;43.434;28.338;2022-10-31T00:08:15;100013.47;;;17.46;100.00
26087;BME280;13851;43.434;28.338;2022-10-31T00:10:42;100188.41;;;18.51;100.00
26087;BME280;13851;43.434;28.338;2022-10-31T00:13:08;100164.63;;;18.37;100.00
26087;BME280;13851;43.434;28.338;2022-10-31T00:15:35;100037.22;;;17.60;100.00
26087;BME280;13851;43.434;28.338;2022-10-31T00:18:02;100179.47;;;18.49;100.00
26087;BME280;13851;43.434;28.338;2022-10-31T00:20:28;100038.88;;;17.68;100.00
26087;BME280;13851;43.434;28.338;2022-10-31T00:22:57;100195.66;;;18.52;100.00
26087;BME280;13851;43.434;28.338;2022-10-31T00:25:24;100179.25;;;18.51;100.00
26087;BME280;13851;43.434;28.338;2022-10-31T00:27:49;100178.16;;;18.52;100.00
26087;BME280;13851;43.434;28.338;2022-10-31T00:30:15;100189.66;;;18.55;100.00
26087;BME280;13851;43.434;28.338;2022-10-31T00:32:40;100166.69;;;18.48;100.00
26087;BME280;13851;43.434;28.338;2022-10-31T00:35:06;100022.69;;;17.65;100.00
26087;BME280;13851;43.434;28.338;2022-10-31T00:37:32;100171.69;;;18.58;100.00
26087;BME280;13851;43.434;28.338;2022-10-31T00:39:57;100130.56;;;18.30;100.00
26087;BME280;13851;43.434;28.338;2022-10-31T00:42:23;100147.94;;;18.43;100.00
26087;BME280;13851;43.434;28.338;2022-10-31T00:44:48;100028.41;;;17.70;100.00
26087;BME280;13851;43.434;28.338;2022-10-31T00:47:13;100131.06;;;18.20;100.00
26087;BME280;13851;43.434;28.338;2022-10-31T00:49:39;100044.41;;;17.75;100.00
26087;BME280;13851;43.434;28.338;2022-10-31T00:52:05;100166.22;;;18.51;100.00
26087;BME280;13851;43.434;28.338;2022-10-31T00:54:30;100147.97;;;18.37;100.00
26087;BME280;13851;43.434;28.338;2022-10-31T00:56:57;100155.25;;;18.38;100.00
26087;BME280;13851;43.434;28.338;2022-10-31T00:59:22;100158.63;;;18.40;100.00
26087;BME280;13851;43.434;28.338;2022-10-31T01:01:48;100184.00;;;18.43;100.00
26087;BME280;13851;43.434;28.338;2022-10-31T01:04:13;100175.63;;;18.50;100.00
26087;BME280;13851;43.434;28.338;2022-10-31T01:06:39;100177.97;;;18.53;100.00
26087;BME280;13851;43.434;28.338;2022-10-31T01:09:04;100163.75;;;18.43;100.00
26087;BME280;13851;43.434;28.338;2022-10-31T01:11:30;100170.16;;;18.37;100.00
26087;BME280;13851;43.434;28.338;2022-10-31T01:13:55;100159.06;;;18.37;100.00
26087;BME280;13851;43.434;28.338;2022-10-31T01:16:23;100172.25;;;18.48;100.00
26087;BME280;13851;43.434;28.338;2022-10-31T01:18:49;100179.00;;;18.52;100.00
26087;BME280;13851;43.434;28.338;2022-10-31T01:21:18;100174.09;;;18.54;100.00
26087;BME280;13851;43.434;28.338;2022-10-31T01:23:44;100032.94;;;17.64;100.00
26087;BME280;13851;43.434;28.338;2022-10-31T01:26:19;100188.88;;;18.48;100.00
26087;BME280;13851;43.434;28.338;2022-10-31T01:28:46;100183.94;;;18.50;100.00
26087;BME280;13851;43.434;28.338;2022-10-31T01:31:13;100181.09;;;18.32;100.00
26087;BME280;13851;43.434;28.338;2022-10-31T01:33:38;100185.63;;;18.51;100.00
26087;BME280;13851;43.434;28.338;2022-10-31T01:36:12;100135.69;;;18.26;100.00
26087;BME280;13851;43.434;28.338;2022-10-31T01:38:38;100177.31;;;18.51;100.00
26087;BME280;13851;43.434;28.338;2022-10-31T01:41:03;100176.69;;;18.49;100.00
26087;BME280;13851;43.434;28.338;2022-10-31T01:43:43;100164.19;;;18.40;100.00
26087;BME280;13851;43.434;28.338;2022-10-31T01:46:09;100162.50;;;18.39;100.00
26087;BME280;13851;43.434;28.338;2022-10-31T01:48:35;100177.38;;;18.44;100.00
26087;BME280;13851;43.434;28.338;2022-10-31T01:51:01;100023.19;;;17.55;100.00
26087;BME280;13851;43.434;28.338;2022-10-31T01:53:30;100117.25;;;18.13;100.00
26087;BME280;13851;43.434;28.338;2022-10-31T01:55:57;100169.72;;;18.40;100.00
26087;BME280;13851;43.434;28.338;2022-10-31T01:58:25;100039.97;;;17.67;100.00
26087;BME280;13851;43.434;28.338;2022-10-31T02:00:56;100161.31;;;18.28;100.00
26087;BME280;13851;43.434;28.338;2022-10-31T02:03:23;100170.13;;;18.43;100.00
26087;BME280;13851;43.434;28.338;2022-10-31T02:05:52;100141.41;;;18.31;100.00
26087;BME280;13851;43.434;28.338;2022-10-31T02:08:25;99984.97;;;17.39;100.00
26087;BME280;13851;43.434;28.338;2022-10-31T02:10:51;100077.09;;;17.91;100.00
26087;BME280;13851;43.434;28.338;2022-10-31T02:13:17;100147.38;;;18.35;100.00
26087;BME280;13851;43.434;28.338;2022-10-31T02:15:45;100128.47;;;18.25;100.00
26087;BME280;13851;43.434;28.338;2022-10-31T02:18:12;100159.25;;;18.42;100.00
26087;BME280;13851;43.434;28.338;2022-10-31T02:20:45;100162.03;;;18.42;100.00
26087;BME280;13851;43.434;28.338;2022-10-31T02:27:07;100152.41;;;18.19;100.00
26087;BME280;13851;43.434;28.338;2022-10-31T02:32:41;100029.63;;;17.49;100.00
26087;BME280;13851;43.434;28.338;2022-10-31T02:48:19;100194.53;;;18.35;100.00
26087;BME280;13851;43.434;28.338;2022-10-31T02:50:54;100053.78;;;17.42;100.00
26087;BME280;13851;43.434;28.338;2022-10-31T02:53:22;100216.72;;;18.35;100.00
26087;BME280;13851;43.434;28.338;2022-10-31T02:55:58;100204.09;;;18.39;100.00
26087;BME280;13851;43.434;28.338;2022-10-31T02:58:26;100189.88;;;18.29;100.00
26087;BME280;13851;43.434;28.338;2022-10-31T03:09:17;100205.69;;;18.22;100.00
26087;BME280;13851;43.434;28.338;2022-10-31T03:14:56;100177.19;;;18.14;100.00
26087;BME280;13851;43.434;28.338;2022-10-31T03:17:35;100205.50;;;18.23;100.00
26087;BME280;13851;43.434;28.338;2022-10-31T03:20:03;100150.47;;;17.88;100.00
26087;BME280;13851;43.434;28.338;2022-10-31T03:22:31;100223.22;;;18.22;100.00
26087;BME280;13851;43.434;28.338;2022-10-31T03:24:58;100142.06;;;17.63;100.00
26087;BME280;13851;43.434;28.338;2022-10-31T03:27:27;100201.84;;;17.91;100.00
26087;BME280;13851;43.434;28.338;2022-10-31T03:29:56;100192.13;;;17.75;100.00
26087;BME280;13851;43.434;28.338;2022-10-31T03:32:32;100236.34;;;18.02;100.00
26087;BME280;13851;43.434;28.338;2022-10-31T03:35:01;100239.97;;;18.02;100.00
26087;BME280;13851;43.434;28.338;2022-10-31T03:37:30;100239.78;;;17.97;100.00
26087;BME280;13851;43.434;28.338;2022-10-31T03:40:00;100239.59;;;17.92;100.00
26087;BME280;13851;43.434;28.338;2022-10-31T03:42:30;100260.50;;;17.88;100.00
26087;BME280;13851;43.434;28.338;2022-10-31T03:45:05;100222.66;;;17.55;100.00
26087;BME280;13851;43.434;28.338;2022-10-31T03:47:33;100251.53;;;17.92;100.00
26087;BME280;13851;43.434;28.338;2022-10-31T03:50:00;100243.50;;;17.78;100.00
26087;BME280;13851;43.434;28.338;2022-10-31T03:52:42;100251.97;;;17.89;100.00
26087;BME280;13851;43.434;28.338;2022-10-31T03:55:21;100250.50;;;17.87;100.00
26087;BME280;13851;43.434;28.338;2022-10-31T03:58:06;100268.59;;;17.89;100.00
26087;BME280;13851;43.434;28.338;2022-10-31T04:00:33;100251.97;;;17.89;100.00
26087;BME280;13851;43.434;28.338;2022-10-31T04:03:16;100259.44;;;17.89;100.00
26087;BME280;13851;43.434;28.338;2022-10-31T04:05:44;100244.56;;;17.77;100.00
26087;BME280;13851;43.434;28.338;2022-10-31T04:08:15;100267.31;;;17.85;100.00
26087;BME280;13851;43.434;28.338;2022-10-31T04:10:43;100247.75;;;17.74;100.00
26087;BME280;13851;43.434;28.338;2022-10-31T04:13:16;100259.66;;;17.81;100.00
26087;BME280;13851;43.434;28.338;2022-10-31T04:15:42;100266.09;;;17.81;100.00
26087;BME280;13851;43.434;28.338;2022-10-31T04:18:08;100273.31;;;17.69;100.00
26087;BME280;13851;43.434;28.338;2022-10-31T04:20:37;100273.78;;;17.73;100.00
26087;BME280;13851;43.434;28.338;2022-10-31T04:23:04;100275.91;;;17.64;100.00
26087;BME280;13851;43.434;28.338;2022-10-31T04:25:30;100271.22;;;17.64;100.00
26087;BME280;13851;43.434;28.338;2022-10-31T04:27:56;100283.97;;;17.65;100.00
26087;BME280;13851;43.434;28.338;2022-10-31T04:30:21;100277.19;;;17.61;100.00
26087;BME280;13851;43.434;28.338;2022-10-31T04:32:47;100282.09;;;17.59;100.00
26087;BME280;13851;43.434;28.338;2022-10-31T04:35:13;100127.47;;;16.65;100.00
26087;BME280;13851;43.434;28.338;2022-10-31T04:37:41;100295.94;;;17.59;100.00
26087;BME280;13851;43.434;28.338;2022-10-31T04:40:06;100279.78;;;17.56;100.00
26087;BME280;13851;43.434;28.338;2022-10-31T04:42:32;100179.81;;;17.00;100.00
26087;BME280;13851;43.434;28.338;2022-10-31T04:44:58;100247.00;;;17.33;100.00
26087;BME280;13851;43.434;28.338;2022-10-31T04:47:23;100288.75;;;17.52;100.00
26087;BME280;13851;43.434;28.338;2022-10-31T04:49:49;100300.00;;;17.63;100.00
26087;BME280;13851;43.434;28.338;2022-10-31T04:52:14;100280.19;;;17.53;100.00
26087;BME280;13851;43.434;28.338;2022-10-31T04:54:40;100274.22;;;17.50;100.00
26087;BME280;13851;43.434;28.338;2022-10-31T04:57:05;100292.31;;;17.59;100.00
26087;BME280;13851;43.434;28.338;2022-10-31T04:59:30;100136.41;;;16.60;100.00
26087;BME280;13851;43.434;28.338;2022-10-31T05:01:56;100287.44;;;17.54;100.00
26087;BME280;13851;43.434;28.338;2022-10-31T05:04:21;100140.25;;;16.66;100.00
26087;BME280;13851;43.434;28.338;2022-10-31T05:06:47;100158.13;;;16.77;100.00
26087;BME280;13851;43.434;28.338;2022-10-31T05:09:13;100300.00;;;17.63;100.00
26087;BME280;13851;43.434;28.338;2022-10-31T05:11:38;100297.66;;;17.74;100.00
26087;BME280;13851;43.434;28.338;2022-10-31T05:14:04;100296.16;;;17.78;100.00
26087;BME280;13851;43.434;28.338;2022-10-31T05:16:29;100324.78;;;18.10;100.00
26087;BME280;13851;43.434;28.338;2022-10-31T05:18:55;100333.25;;;18.22;100.00
26087;BME280;13851;43.434;28.338;2022-10-31T05:21:20;100292.84;;;18.01;100.00
26087;BME280;13851;43.434;28.338;2022-10-31T05:23:46;100332.84;;;18.25;100.00
26087;BME280;13851;43.434;28.338;2022-10-31T05:26:11;100328.84;;;18.52;100.00
26087;BME280;13851;43.434;28.338;2022-10-31T05:28:36;100320.03;;;18.62;100.00
26087;BME280;13851;43.434;28.338;2022-10-31T05:31:02;100313.38;;;18.63;100.00
26087;BME280;13851;43.434;28.338;2022-10-31T05:33:28;100253.38;;;18.37;100.00
26087;BME280;13851;43.434;28.338;2022-10-31T05:35:53;100348.19;;;18.97;100.00
26087;BME280;13851;43.434;28.338;2022-10-31T05:38:19;100183.16;;;18.11;100.00
26087;BME280;13851;43.434;28.338;2022-10-31T05:40:44;100306.13;;;19.00;100.00
26087;BME280;13851;43.434;28.338;2022-10-31T05:43:10;100274.75;;;18.93;100.00
26087;BME280;13851;43.434;28.338;2022-10-31T05:45:35;100157.84;;;18.33;100.00
26087;BME280;13851;43.434;28.338;2022-10-31T05:48:01;100344.81;;;19.45;100.00
26087;BME280;13851;43.434;28.338;2022-10-31T05:50:30;100199.84;;;18.61;100.00
26087;BME280;13851;43.434;28.338;2022-10-31T05:53:01;100362.25;;;19.52;100.00
26087;BME280;13851;43.434;28.338;2022-10-31T05:55:28;100355.38;;;19.61;100.00
26087;BME280;13851;43.434;28.338;2022-10-31T05:57:54;100320.81;;;19.51;100.00
26087;BME280;13851;43.434;28.338;2022-10-31T06:00:22;100289.78;;;19.35;100.00
26087;BME280;13851;43.434;28.338;2022-10-31T06:02:48;100336.16;;;19.53;100.00
26087;BME280;13851;43.434;28.338;2022-10-31T06:05:14;100354.75;;;19.78;100.00
26087;BME280;13851;43.434;28.338;2022-10-31T06:07:40;100236.34;;;19.15;100.00
26087;BME280;13851;43.434;28.338;2022-10-31T06:10:07;100349.13;;;19.84;100.00
26087;BME280;13851;43.434;28.338;2022-10-31T06:12:34;100359.25;;;19.97;100.00
26087;BME280;13851;43.434;28.338;2022-10-31T06:15:07;100348.59;;;19.94;100.00
26087;BME280;13851;43.434;28.338;2022-10-31T06:17:34;100362.94;;;20.09;100.00
26087;BME280;13851;43.434;28.338;2022-10-31T06:20:00;100332.66;;;20.01;100.00
26087;BME280;13851;43.434;28.338;2022-10-31T06:22:29;100352.53;;;20.05;100.00
26087;BME280;13851;43.434;28.338;2022-10-31T06:24:54;100366.03;;;20.19;100.00
26087;BME280;13851;43.434;28.338;2022-10-31T06:27:20;100375.94;;;20.34;100.00
26087;BME280;13851;43.434;28.338;2022-10-31T06:29:48;100253.53;;;19.67;100.00
26087;BME280;13851;43.434;28.338;2022-10-31T06:32:14;100359.63;;;20.37;100.00
26087;BME280;13851;43.434;28.338;2022-10-31T06:34:40;100376.06;;;20.57;100.00
26087;BME280;13851;43.434;28.338;2022-10-31T06:37:07;100345.84;;;20.42;100.00
26087;BME280;13851;43.434;28.338;2022-10-31T06:39:33;100231.41;;;19.90;100.00
26087;BME280;13851;43.434;28.338;2022-10-31T06:41:59;100374.38;;;20.86;100.00
26087;BME280;13851;43.434;28.338;2022-10-31T06:44:25;100380.47;;;21.07;100.00
26087;BME280;13851;43.434;28.338;2022-10-31T06:46:52;100376.72;;;21.13;100.00
26087;BME280;13851;43.434;28.338;2022-10-31T06:49:20;100372.13;;;21.18;100.00
26087;BME280;13851;43.434;28.338;2022-10-31T06:51:49;100381.28;;;21.37;100.00
26087;BME280;13851;43.434;28.338;2022-10-31T06:54:15;100359.78;;;21.14;100.00
26087;BME280;13851;43.434;28.338;2022-10-31T06:56:41;100236.53;;;20.54;100.00
26087;BME280;13851;43.434;28.338;2022-10-31T06:59:06;100356.69;;;21.34;100.00
26087;BME280;13851;43.434;28.338;2022-10-31T07:01:32;100392.56;;;21.54;100.00
26087;BME280;13851;43.434;28.338;2022-10-31T07:03:57;100383.47;;;21.47;100.00
26087;BME280;13851;43.434;28.338;2022-10-31T07:06:23;100380.81;;;21.40;100.00
26087;BME280;13851;43.434;28.338;2022-10-31T07:08:48;100353.72;;;21.17;100.00
26087;BME280;13851;43.434;28.338;2022-10-31T07:11:14;100389.38;;;21.27;100.00
26087;BME280;13851;43.434;28.338;2022-10-31T07:13:39;100379.28;;;21.14;100.00
26087;BME280;13851;43.434;28.338;2022-10-31T07:16:06;100378.53;;;21.07;100.00
26087;BME280;13851;43.434;28.338;2022-10-31T07:18:32;100386.06;;;21.18;100.00
26087;BME280;13851;43.434;28.338;2022-10-31T07:20:58;100386.78;;;21.14;100.00
26087;BME280;13851;43.434;28.338;2022-10-31T07:23:23;100244.50;;;20.32;100.00
26087;BME280;13851;43.434;28.338;2022-10-31T07:25:54;100375.34;;;20.92;100.00
26087;BME280;13851;43.434;28.338;2022-10-31T07:28:21;100395.00;;;21.09;100.00
26087;BME280;13851;43.434;28.338;2022-10-31T07:30:50;100396.81;;;21.03;100.00
26087;BME280;13851;43.434;28.338;2022-10-31T07:33:16;100400.91;;;20.89;100.00
26087;BME280;13851;43.434;28.338;2022-10-31T07:35:41;100293.19;;;20.41;100.00
26087;BME280;13851;43.434;28.338;2022-10-31T07:38:11;100395.59;;;20.99;100.00
26087;BME280;13851;43.434;28.338;2022-10-31T07:40:37;100393.66;;;20.99;100.00
26087;BME280;13851;43.434;28.338;2022-10-31T07:43:03;100396.22;;;21.01;100.00
26087;BME280;13851;43.434;28.338;2022-10-31T07:45:29;100399.19;;;20.88;100.00
26087;BME280;13851;43.434;28.338;2022-10-31T07:47:54;100385.13;;;20.83;100.00
26087;BME280;13851;43.434;28.338;2022-10-31T07:50:31;100374.47;;;20.80;100.00
26087;BME280;13851;43.434;28.338;2022-10-31T07:53:08;100401.78;;;21.01;100.00
26087;BME280;13851;43.434;28.338;2022-10-31T07:55:35;100398.47;;;20.92;100.00
26087;BME280;13851;43.434;28.338;2022-10-31T08:00:33;100377.16;;;20.98;100.00
26087;BME280;13851;43.434;28.338;2022-10-31T08:03:04;100385.81;;;21.08;100.00
26087;BME280;13851;43.434;28.338;2022-10-31T08:05:32;100413.31;;;21.16;100.00
26087;BME280;13851;43.434;28.338;2022-10-31T08:08:01;100382.94;;;21.26;100.00
26087;BME280;13851;43.434;28.338;2022-10-31T08:10:27;100364.19;;;21.34;100.00
26087;BME280;13851;43.434;28.338;2022-10-31T08:13:19;100358.28;;;21.53;100.00
26087;BME280;13851;43.434;28.338;2022-10-31T08:15:45;100368.59;;;21.76;100.00
26087;BME280;13851;43.434;28.338;2022-10-31T08:18:16;100367.19;;;22.26;100.00
26087;BME280;13851;43.434;28.338;2022-10-31T08:20:42;100385.28;;;22.64;100.00
26087;BME280;13851;43.434;28.338;2022-10-31T08:23:09;100394.63;;;22.98;100.00
26087;BME280;13851;43.434;28.338;2022-10-31T08:25:36;100400.19;;;23.26;100.00
26087;BME280;13851;43.434;28.338;2022-10-31T08:28:02;100403.56;;;23.62;100.00
26087;BME280;13851;43.434;28.338;2022-10-31T08:30:30;100367.22;;;23.79;100.00
26087;BME280;13851;43.434;28.338;2022-10-31T08:33:08;100401.00;;;24.33;100.00
26087;BME280;13851;43.434;28.338;2022-10-31T08:35:34;100385.28;;;24.49;100.00
26087;BME280;13851;43.434;28.338;2022-10-31T08:38:01;100406.25;;;24.68;100.00
26087;BME280;13851;43.434;28.338;2022-10-31T08:40:30;100400.94;;;24.94;100.00
26087;BME280;13851;43.434;28.338;2022-10-31T08:43:00;100374.03;;;24.98;100.00
26087;BME280;13851;43.434;28.338;2022-10-31T08:45:26;100384.53;;;25.34;100.00
26087;BME280;13851;43.434;28.338;2022-10-31T08:47:56;100379.34;;;25.53;99.72
26087;BME280;13851;43.434;28.338;2022-10-31T08:50:22;100404.44;;;25.65;99.17
26087;BME280;13851;43.434;28.338;2022-10-31T08:52:47;100394.75;;;25.83;97.13
26087;BME280;13851;43.434;28.338;2022-10-31T08:55:13;100391.97;;;25.88;95.65
26087;BME280;13851;43.434;28.338;2022-10-31T08:57:39;100382.75;;;25.92;87.56
26087;BME280;13851;43.434;28.338;2022-10-31T09:00:05;100432.00;;;26.15;85.94
26087;BME280;13851;43.434;28.338;2022-10-31T09:02:30;100250.78;;;25.40;83.52
26087;BME280;13851;43.434;28.338;2022-10-31T09:04:56;100205.91;;;25.40;78.30
26087;BME280;13851;43.434;28.338;2022-10-31T09:07:21;100396.00;;;26.55;80.73
26087;BME280;13851;43.434;28.338;2022-10-31T09:09:47;100396.06;;;26.65;85.78
26087;BME280;13851;43.434;28.338;2022-10-31T09:12:13;100282.59;;;26.08;79.27
26087;BME280;13851;43.434;28.338;2022-10-31T09:14:38;100253.69;;;26.13;84.35
26087;BME280;13851;43.434;28.338;2022-10-31T09:17:04;100290.91;;;26.56;84.17
26087;BME280;13851;43.434;28.338;2022-10-31T09:19:29;100398.19;;;27.31;78.75
26087;BME280;13851;43.434;28.338;2022-10-31T09:21:56;100372.88;;;27.31;73.69
26087;BME280;13851;43.434;28.338;2022-10-31T09:24:21;100396.78;;;27.59;71.24
26087;BME280;13851;43.434;28.338;2022-10-31T09:26:47;100191.72;;;26.50;71.84
26087;BME280;13851;43.434;28.338;2022-10-31T09:29:12;100394.56;;;27.81;69.41
26087;BME280;13851;43.434;28.338;2022-10-31T09:31:38;100279.19;;;27.35;68.25
26087;BME280;13851;43.434;28.338;2022-10-31T09:34:04;100397.59;;;28.15;67.19
26087;BME280;13851;43.434;28.338;2022-10-31T09:36:29;100366.91;;;28.04;63.18
26087;BME280;13851;43.434;28.338;2022-10-31T09:38:55;100410.00;;;27.99;62.21
26087;BME280;13851;43.434;28.338;2022-10-31T09:49:52;100382.72;;;27.48;72.82
26087;BME280;13851;43.434;28.338;2022-10-31T09:52:30;100375.41;;;27.47;73.73
26087;BME280;13851;43.434;28.338;2022-10-31T09:55:23;100377.09;;;27.54;67.68
26087;BME280;13851;43.434;28.338;2022-10-31T09:57:54;100368.41;;;27.70;71.06
26087;BME280;13851;43.434;28.338;2022-10-31T10:00:21;100360.19;;;27.59;68.97
26087;BME280;13851;43.434;28.338;2022-10-31T10:02:54;100372.56;;;27.93;69.71
26087;BME280;13851;43.434;28.338;2022-10-31T10:05:29;100371.97;;;28.12;66.44
26087;BME280;13851;43.434;28.338;2022-10-31T10:08:21;100364.09;;;27.98;63.70
26087;BME280;13851;43.434;28.338;2022-10-31T10:16:47;100338.81;;;27.37;64.84
26087;BME280;13851;43.434;28.338;2022-10-31T10:19:24;100367.25;;;27.56;67.21
26087;BME280;13851;43.434;28.338;2022-10-31T10:27:20;100353.44;;;27.65;63.71
26087;BME280;13851;43.434;28.338;2022-10-31T10:32:22;100393.72;;;27.86;63.48
26087;BME280;13851;43.434;28.338;2022-10-31T10:34:55;100363.28;;;27.93;61.64
26087;BME280;13851;43.434;28.338;2022-10-31T10:37:32;100346.69;;;27.81;61.99
26087;BME280;13851;43.434;28.338;2022-10-31T10:40:15;100356.81;;;27.82;65.06
26087;BME280;13851;43.434;28.338;2022-10-31T10:43:54;100374.56;;;27.83;62.79
26087;BME280;13851;43.434;28.338;2022-10-31T10:49:37;100368.94;;;27.57;62.82
26087;BME280;13851;43.434;28.338;2022-10-31T10:52:27;100285.94;;;26.93;60.84
26087;BME280;13851;43.434;28.338;2022-10-31T10:55:06;100318.25;;;27.06;68.18
26087;BME280;13851;43.434;28.338;2022-10-31T10:57:56;100372.59;;;27.53;64.31
26087;BME280;13851;43.434;28.338;2022-10-31T11:00:47;100203.25;;;26.94;62.02
26087;BME280;13851;43.434;28.338;2022-10-31T11:03:16;100367.41;;;28.31;58.78
26087;BME280;13851;43.434;28.338;2022-10-31T11:05:56;100358.31;;;28.49;53.93
26087;BME280;13851;43.434;28.338;2022-10-31T11:08:27;100360.00;;;28.50;51.34
26087;BME280;13851;43.434;28.338;2022-10-31T11:11:04;100356.44;;;28.14;53.47
26087;BME280;13851;43.434;28.338;2022-10-31T11:13:31;100354.53;;;27.94;56.04
26087;BME280;13851;43.434;28.338;2022-10-31T11:16:26;100350.03;;;27.88;56.53
26087;BME280;13851;43.434;28.338;2022-10-31T11:21:40;100224.63;;;26.90;55.20
26087;BME280;13851;43.434;28.338;2022-10-31T11:24:15;100319.69;;;27.50;55.55
26087;BME280;13851;43.434;28.338;2022-10-31T11:26:44;100345.00;;;27.80;54.07
26087;BME280;13851;43.434;28.338;2022-10-31T11:29:21;100337.63;;;27.94;55.66
26087;BME280;13851;43.434;28.338;2022-10-31T11:31:51;100346.56;;;28.22;54.56
26087;BME280;13851;43.434;28.338;2022-10-31T11:34:42;100323.56;;;27.89;55.00
26087;BME280;13851;43.434;28.338;2022-10-31T11:37:18;100347.75;;;28.06;56.40
26087;BME280;13851;43.434;28.338;2022-10-31T11:39:46;100370.84;;;28.13;56.39
26087;BME280;13851;43.434;28.338;2022-10-31T11:42:21;100322.28;;;28.41;51.93
26087;BME280;13851;43.434;28.338;2022-10-31T11:44:48;100326.81;;;28.82;50.32
26087;BME280;13851;43.434;28.338;2022-10-31T11:47:16;100298.19;;;29.09;47.97
26087;BME280;13851;43.434;28.338;2022-10-31T11:49:45;100342.47;;;29.42;46.75
26087;BME280;13851;43.434;28.338;2022-10-31T11:52:23;100323.13;;;29.31;46.41
26087;BME280;13851;43.434;28.338;2022-10-31T11:55:25;100332.53;;;29.55;46.78
26087;BME280;13851;43.434;28.338;2022-10-31T11:57:49;100341.94;;;29.98;46.86
26087;BME280;13851;43.434;28.338;2022-10-31T12:00:22;100291.38;;;29.73;45.50
26087;BME280;13851;43.434;28.338;2022-10-31T12:02:48;100316.56;;;29.93;46.00
26087;BME280;13851;43.434;28.338;2022-10-31T12:05:23;100331.66;;;29.84;45.56
26087;BME280;13851;43.434;28.338;2022-10-31T12:07:52;100334.59;;;30.26;45.52
26087;BME280;13851;43.434;28.338;2022-10-31T12:10:21;100215.19;;;29.68;43.31
26087;BME280;13851;43.434;28.338;2022-10-31T12:12:52;100344.25;;;30.44;43.24
26087;BME280;13851;43.434;28.338;2022-10-31T12:15:36;100338.91;;;30.43;41.93
26087;BME280;13851;43.434;28.338;2022-10-31T12:34:29;100321.88;;;29.13;47.64
26087;BME280;13851;43.434;28.338;2022-10-31T12:54:21;100365.88;;;22.86;100.00
26087;BME280;13851;43.434;28.338;2022-10-31T12:59:52;100352.91;;;22.11;100.00
26087;BME280;13851;43.434;28.338;2022-10-31T13:07:58;100338.09;;;21.16;100.00
26087;BME280;13851;43.434;28.338;2022-10-31T13:10:44;100359.13;;;21.31;100.00
26087;BME280;13851;43.434;28.338;2022-10-31T13:16:02;100360.09;;;21.48;100.00
26087;BME280;13851;43.434;28.338;2022-10-31T13:18:48;100348.56;;;21.44;100.00
26087;BME280;13851;43.434;28.338;2022-10-31T13:21:25;100350.75;;;21.77;100.00
26087;BME280;13851;43.434;28.338;2022-10-31T13:23:52;100347.13;;;22.41;100.00
26087;BME280;13851;43.434;28.338;2022-10-31T13:29:28;100352.97;;;22.68;100.00
26087;BME280;13851;43.434;28.338;2022-10-31T13:31:55;100188.13;;;22.17;100.00
26087;BME280;13851;43.434;28.338;2022-10-31T13:34:35;100367.53;;;23.49;100.00
26087;BME280;13851;43.434;28.338;2022-10-31T13:37:37;100357.13;;;23.27;100.00
26087;BME280;13851;43.434;28.338;2022-10-31T13:43:06;100327.88;;;24.07;100.00
26087;BME280;13851;43.434;28.338;2022-10-31T13:45:35;100339.56;;;24.43;100.00
26087;BME280;13851;43.434;28.338;2022-10-31T13:50:42;100350.97;;;23.98;100.00
26087;BME280;13851;43.434;28.338;2022-10-31T13:53:11;100205.00;;;23.23;100.00
26087;BME280;13851;43.434;28.338;2022-10-31T13:55:43;100353.84;;;24.03;100.00
26087;BME280;13851;43.434;28.338;2022-10-31T13:58:24;100342.72;;;23.52;100.00
26087;BME280;13851;43.434;28.338;2022-10-31T14:03:38;100358.69;;;22.61;100.00
26087;BME280;13851;43.434;28.338;2022-10-31T14:06:06;100360.84;;;22.71;100.00
26087;BME280;13851;43.434;28.338;2022-10-31T14:08:36;100318.19;;;22.18;100.00
26087;BME280;13851;43.434;28.338;2022-10-31T14:11:03;100304.44;;;21.53;100.00
26087;BME280;13851;43.434;28.338;2022-10-31T14:13:40;100352.78;;;21.94;100.00
26087;BME280;13851;43.434;28.338;2022-10-31T14:21:30;100347.47;;;23.69;100.00
26087;BME280;13851;43.434;28.338;2022-10-31T14:23:57;100220.78;;;22.79;100.00
26087;BME280;13851;43.434;28.338;2022-10-31T14:28:49;100374.69;;;23.73;100.00
26087;BME280;13851;43.434;28.338;2022-10-31T14:31:36;100346.44;;;23.58;100.00
26087;BME280;13851;43.434;28.338;2022-10-31T14:36:46;100367.53;;;22.70;100.00
26087;BME280;13851;43.434;28.338;2022-10-31T14:39:21;100218.22;;;22.15;100.00
26087;BME280;13851;43.434;28.338;2022-10-31T14:42:14;100371.94;;;23.11;100.00
26087;BME280;13851;43.434;28.338;2022-10-31T14:50:17;100382.19;;;22.77;100.00
26087;BME280;13851;43.434;28.338;2022-10-31T14:52:51;100349.63;;;22.02;100.00
26087;BME280;13851;43.434;28.338;2022-10-31T14:55:19;100352.44;;;21.43;100.00
26087;BME280;13851;43.434;28.338;2022-10-31T14:57:51;100378.50;;;21.49;100.00
26087;BME280;13851;43.434;28.338;2022-10-31T15:00:21;100229.81;;;20.43;100.00